createdAt,value
2017-12-28T00:01:47.895Z,6.03
2017-12-28T00:04:15.428Z,8.17
2017-12-28T00:06:42.898Z,7.50
2017-12-28T00:09:10.373Z,8.53
2017-12-28T00:11:37.854Z,5.60
2017-12-28T00:14:05.342Z,4.83
2017-12-28T00:16:32.955Z,6.33
2017-12-28T00:19:00.441Z,9.77
2017-12-28T00:21:28.683Z,12.30
2017-12-28T00:23:56.166Z,8.70
2017-12-28T00:26:23.631Z,12.60
2017-12-28T00:28:51.114Z,14.87
2017-12-28T00:31:18.624Z,7.57
2017-12-28T00:33:46.102Z,8.07
2017-12-28T00:36:13.598Z,7.03
2017-12-28T00:38:41.110Z,8.57
2017-12-28T00:41:08.587Z,14.07
2017-12-28T00:43:36.841Z,18.13
2017-12-28T00:46:04.296Z,7.63
2017-12-28T00:48:31.784Z,11.10
2017-12-28T00:50:59.355Z,20.80
2017-12-28T00:53:27.577Z,9.23
2017-12-28T00:55:55.144Z,7.97
2017-12-28T00:58:22.598Z,10.20
2017-12-28T01:00:50.110Z,10.70
2017-12-28T01:03:17.822Z,12.73
2017-12-28T01:05:45.387Z,11.73
2017-12-28T01:08:12.870Z,7.07
2017-12-28T01:10:40.359Z,18.43
2017-12-28T01:13:07.834Z,13.40
2017-12-28T01:15:35.291Z,7.97
2017-12-28T01:18:02.773Z,9.43
2017-12-28T01:20:30.251Z,10.10
2017-12-28T01:22:57.714Z,7.30
2017-12-28T01:25:25.207Z,19.63
2017-12-28T01:27:53.447Z,14.10
2017-12-28T01:30:20.917Z,8.07
2017-12-28T01:32:48.398Z,12.00
2017-12-28T01:35:16.655Z,13.97
2017-12-28T01:37:44.164Z,6.30
2017-12-28T01:40:11.666Z,10.10
2017-12-28T01:42:39.184Z,9.00
2017-12-28T01:45:06.699Z,17.73
2017-12-28T01:47:34.173Z,10.57
2017-12-28T01:50:02.419Z,16.43
2017-12-28T01:52:29.869Z,10.63
2017-12-28T01:54:57.469Z,8.20
2017-12-28T01:57:24.951Z,12.23
2017-12-28T01:59:52.479Z,13.27
2017-12-28T02:02:20.714Z,11.50
2017-12-28T02:04:48.274Z,14.63
2017-12-28T02:07:15.774Z,20.23
2017-12-28T02:09:44.017Z,18.43
2017-12-28T02:12:11.513Z,14.40
2017-12-28T02:14:39.747Z,13.67
2017-12-28T02:17:07.413Z,8.33
2017-12-28T02:19:35.692Z,13.50
2017-12-28T02:22:03.170Z,17.50
2017-12-28T02:24:31.428Z,14.73
2017-12-28T02:26:58.910Z,11.93
2017-12-28T02:29:27.139Z,13.17
2017-12-28T02:31:54.620Z,12.83
2017-12-28T02:34:22.105Z,6.53
2017-12-28T02:36:50.352Z,10.40
2017-12-28T02:39:17.828Z,9.57
2017-12-28T02:41:45.274Z,12.20
2017-12-28T02:44:12.761Z,17.53
2017-12-28T02:46:40.999Z,8.77
2017-12-28T02:49:08.471Z,7.90
2017-12-28T02:51:35.936Z,8.50
2017-12-28T02:54:04.222Z,11.87
2017-12-28T02:56:32.463Z,11.20
2017-12-28T02:59:00.006Z,6.27
2017-12-28T03:01:27.483Z,16.37
2017-12-28T03:03:54.934Z,10.13
2017-12-28T03:06:22.407Z,8.47
2017-12-28T03:08:49.862Z,24.60
2017-12-28T03:11:17.333Z,15.07
2017-12-28T03:13:44.800Z,9.40
2017-12-28T03:16:12.273Z,13.97
2017-12-28T03:18:40.491Z,15.83
2017-12-28T03:21:08.046Z,15.53
2017-12-28T03:23:35.508Z,7.57
2017-12-28T03:26:03.014Z,13.00
2017-12-28T03:28:31.253Z,36.07
2017-12-28T03:30:58.735Z,11.07
2017-12-28T03:33:26.199Z,10.20
2017-12-28T03:35:53.666Z,5.73
2017-12-28T03:38:21.225Z,9.13
2017-12-28T03:40:48.821Z,9.10
2017-12-28T03:43:16.291Z,5.20
2017-12-28T03:45:43.783Z,4.53
2017-12-28T03:48:11.283Z,5.70
2017-12-28T03:50:39.502Z,9.10
2017-12-28T03:53:07.244Z,7.40
2017-12-28T03:55:34.700Z,10.37
2017-12-28T03:58:02.252Z,5.37
2017-12-28T04:00:29.666Z,8.07
2017-12-28T04:02:57.183Z,8.70
2017-12-28T04:05:24.646Z,13.23
2017-12-28T04:07:52.121Z,8.97
2017-12-28T04:10:19.584Z,8.80
2017-12-28T04:12:47.085Z,7.50
2017-12-28T04:15:15.359Z,14.70
2017-12-28T04:17:43.585Z,11.03
2017-12-28T04:20:11.061Z,12.00
2017-12-28T04:22:38.550Z,19.50
2017-12-28T04:25:06.802Z,14.30
2017-12-28T04:27:34.283Z,12.03
2017-12-28T04:30:02.522Z,20.53
2017-12-28T04:32:30.006Z,23.07
2017-12-28T04:34:57.568Z,18.43
2017-12-28T04:37:25.030Z,13.83
2017-12-28T04:39:53.283Z,14.63
2017-12-28T04:42:20.814Z,15.10
2017-12-28T04:44:48.330Z,25.67
2017-12-28T04:47:16.589Z,12.33
2017-12-28T04:49:44.067Z,16.87
2017-12-28T04:52:12.333Z,10.60
2017-12-28T04:54:40.591Z,13.67
2017-12-28T04:57:08.061Z,10.70
2017-12-28T04:59:37.361Z,18.60
2017-12-28T05:02:04.915Z,9.37
2017-12-28T05:04:32.418Z,21.43
2017-12-28T05:06:59.899Z,21.90
2017-12-28T05:09:27.406Z,24.43
2017-12-28T05:11:54.889Z,23.77
2017-12-28T05:14:23.134Z,26.23
2017-12-28T05:16:50.624Z,31.70
2017-12-28T05:19:18.865Z,25.67
2017-12-28T05:21:46.356Z,16.97
2017-12-28T05:24:14.581Z,30.73
2017-12-28T05:26:42.061Z,20.80
2017-12-28T05:29:09.553Z,18.13
2017-12-28T05:31:37.123Z,22.53
2017-12-28T05:34:04.632Z,12.83
2017-12-28T05:36:33.609Z,17.20
2017-12-28T05:39:01.096Z,16.27
2017-12-28T05:41:28.577Z,19.87
2017-12-28T05:43:56.842Z,14.73
2017-12-28T05:46:25.074Z,16.67
2017-12-28T05:48:52.571Z,18.90
2017-12-28T05:51:20.112Z,14.97
2017-12-28T05:53:47.607Z,11.50
2017-12-28T05:56:15.072Z,16.07
2017-12-28T05:58:42.530Z,14.13
2017-12-28T06:01:10.786Z,11.37
2017-12-28T06:03:39.013Z,13.13
2017-12-28T06:06:06.482Z,12.03
2017-12-28T06:08:33.961Z,16.13
2017-12-28T06:11:01.436Z,17.40
2017-12-28T06:13:29.651Z,9.00
2017-12-28T06:15:57.126Z,11.60
2017-12-28T06:18:24.573Z,12.33
2017-12-28T06:20:52.048Z,13.27
2017-12-28T06:23:19.543Z,11.03
2017-12-28T06:25:47.805Z,7.40
2017-12-28T06:28:15.269Z,8.03
2017-12-28T06:30:42.819Z,9.10
2017-12-28T06:33:10.287Z,5.93
2017-12-28T06:35:37.760Z,4.40
2017-12-28T06:38:06.004Z,5.10
2017-12-28T06:40:33.443Z,5.07
2017-12-28T06:43:00.939Z,5.80
2017-12-28T06:45:28.440Z,5.87
2017-12-28T06:47:55.918Z,7.67
2017-12-28T06:50:23.477Z,8.03
2017-12-28T06:52:50.939Z,6.73
2017-12-28T06:55:18.426Z,7.83
2017-12-28T06:57:45.903Z,7.07
2017-12-28T07:00:14.138Z,6.60
2017-12-28T07:02:41.598Z,6.93
2017-12-28T07:05:09.079Z,9.33
2017-12-28T07:07:36.584Z,5.83
2017-12-28T07:10:04.043Z,5.97
2017-12-28T07:12:31.630Z,5.67
2017-12-28T07:14:59.140Z,7.27
2017-12-28T07:17:27.371Z,5.70
2017-12-28T07:19:54.844Z,11.43
2017-12-28T07:22:22.300Z,5.83
2017-12-28T07:24:49.764Z,8.00
2017-12-28T07:27:17.282Z,10.57
2017-12-28T07:29:44.745Z,12.73
2017-12-28T07:32:12.239Z,11.33
2017-12-28T07:34:39.727Z,14.73
2017-12-28T07:37:07.964Z,14.10
2017-12-28T07:39:35.417Z,14.97
2017-12-28T07:42:02.908Z,21.13
2017-12-28T07:44:30.384Z,23.37
2017-12-28T07:46:58.658Z,22.93
2017-12-28T07:49:26.882Z,38.87
2017-12-28T07:51:54.346Z,28.27
2017-12-28T07:54:21.848Z,32.13
2017-12-28T07:56:50.079Z,23.93
2017-12-28T07:59:17.560Z,24.77
2017-12-28T08:01:45.062Z,27.67
2017-12-28T08:04:13.799Z,25.37
2017-12-28T08:06:41.288Z,40.80
2017-12-28T08:09:09.540Z,27.77
2017-12-28T08:11:37.007Z,36.10
2017-12-28T08:14:04.487Z,37.77
2017-12-28T08:16:32.711Z,34.97
2017-12-28T08:19:01.726Z,26.33
2017-12-28T08:21:29.203Z,33.50
2017-12-28T08:23:57.447Z,45.27
2017-12-28T08:26:24.915Z,32.47
2017-12-28T08:28:52.482Z,34.03
2017-12-28T08:31:19.976Z,46.97
2017-12-28T08:33:48.209Z,34.47
2017-12-28T08:36:15.752Z,35.43
2017-12-28T08:38:43.223Z,38.77
2017-12-28T08:41:10.688Z,41.20
2017-12-28T08:43:38.229Z,38.10
2017-12-28T08:46:06.115Z,39.40
2017-12-28T08:48:33.604Z,40.13
2017-12-28T08:51:01.833Z,37.40
2017-12-28T08:53:29.401Z,40.63
2017-12-28T08:55:56.885Z,53.00
2017-12-28T08:58:25.123Z,42.57
2017-12-28T09:00:52.617Z,42.67
2017-12-28T09:03:20.089Z,46.47
2017-12-28T09:05:48.380Z,30.83
2017-12-28T09:08:16.683Z,41.57
2017-12-28T09:10:44.147Z,25.20
2017-12-28T09:13:11.659Z,33.37
2017-12-28T09:15:39.110Z,34.67
2017-12-28T09:18:06.573Z,29.43
2017-12-28T09:20:34.807Z,39.23
2017-12-28T09:23:02.278Z,36.50
2017-12-28T09:25:29.744Z,35.43
2017-12-28T09:27:57.242Z,33.07
2017-12-28T09:30:25.472Z,24.23
2017-12-28T09:32:52.937Z,21.93
2017-12-28T09:35:20.426Z,24.87
2017-12-28T09:37:48.770Z,31.83
2017-12-28T09:40:16.244Z,23.73
2017-12-28T09:42:43.747Z,25.70
2017-12-28T09:45:11.225Z,29.23
2017-12-28T09:47:38.725Z,34.87
2017-12-28T09:50:06.223Z,20.07
2017-12-28T09:52:33.700Z,29.27
2017-12-28T09:55:01.188Z,31.77
2017-12-28T09:57:28.719Z,30.30
2017-12-28T09:59:56.218Z,23.93
2017-12-28T10:02:24.481Z,20.87
2017-12-28T10:04:51.974Z,23.90
2017-12-28T10:07:20.205Z,17.83
2017-12-28T10:09:47.765Z,13.30
2017-12-28T10:12:15.231Z,12.23
2017-12-28T10:14:42.699Z,10.10
2017-12-28T10:17:11.011Z,11.13
2017-12-28T10:19:38.445Z,8.77
2017-12-28T10:22:06.688Z,10.67
2017-12-28T10:24:34.156Z,7.73
2017-12-28T10:27:01.648Z,11.80
2017-12-28T10:29:29.878Z,8.40
2017-12-28T10:31:57.346Z,23.73
2017-12-28T10:34:24.855Z,17.13
2017-12-28T10:36:53.178Z,19.10
2017-12-28T10:39:20.672Z,16.80
2017-12-28T10:41:48.971Z,8.90
2017-12-28T10:44:17.220Z,15.23
2017-12-28T10:46:44.687Z,22.70
2017-12-28T10:49:12.926Z,11.40
2017-12-28T10:51:40.389Z,15.30
2017-12-28T10:54:08.132Z,12.50
2017-12-28T10:56:35.676Z,22.13
2017-12-28T10:59:03.323Z,16.70
2017-12-28T11:01:31.568Z,15.93
2017-12-28T11:03:59.049Z,16.97
2017-12-28T11:06:27.397Z,13.40
2017-12-28T11:08:54.886Z,23.63
2017-12-28T11:11:23.124Z,20.97
2017-12-28T11:13:52.981Z,26.33
2017-12-28T11:16:20.959Z,21.23
2017-12-28T11:18:48.902Z,29.17
2017-12-28T11:21:20.326Z,18.17
2017-12-28T11:23:49.259Z,19.47
2017-12-28T11:26:17.782Z,14.63
2017-12-28T11:28:45.724Z,22.47
2017-12-28T11:31:16.852Z,19.90
2017-12-28T11:33:44.366Z,15.03
2017-12-28T11:36:11.881Z,17.67
2017-12-28T11:38:41.408Z,16.07
2017-12-28T11:41:08.891Z,10.20
2017-12-28T11:43:36.503Z,10.47
2017-12-28T11:46:04.237Z,18.67
2017-12-28T11:48:31.706Z,9.70
2017-12-28T11:50:59.659Z,20.33
2017-12-28T11:53:35.958Z,19.93
2017-12-28T11:56:09.974Z,15.73
2017-12-28T11:58:43.166Z,12.17
2017-12-28T12:01:10.657Z,21.20
2017-12-28T12:03:38.144Z,18.57
2017-12-28T12:06:07.586Z,14.67
2017-12-28T12:08:42.466Z,17.87
2017-12-28T12:11:09.948Z,26.83
2017-12-28T12:13:37.430Z,18.97
2017-12-28T12:16:05.673Z,15.40
2017-12-28T12:18:33.185Z,15.90
2017-12-28T12:21:00.707Z,19.27
2017-12-28T12:23:28.212Z,19.43
2017-12-28T12:25:55.701Z,11.73
2017-12-28T12:28:23.273Z,13.93
2017-12-28T12:30:50.946Z,13.80
2017-12-28T12:33:18.464Z,17.37
2017-12-28T12:35:45.946Z,11.53
2017-12-28T12:38:13.452Z,18.30
2017-12-28T12:40:41.692Z,17.53
2017-12-28T12:43:09.325Z,19.83
2017-12-28T12:45:36.789Z,14.70
2017-12-28T12:48:04.269Z,20.70
2017-12-28T12:50:31.742Z,23.70
2017-12-28T12:52:59.246Z,15.00
2017-12-28T12:55:26.718Z,17.40
2017-12-28T12:57:54.222Z,16.80
2017-12-28T13:00:22.500Z,11.13
2017-12-28T13:02:50.770Z,16.87
2017-12-28T13:05:18.247Z,9.60
2017-12-28T13:07:46.473Z,15.70
2017-12-28T13:10:13.958Z,15.90
2017-12-28T13:12:41.461Z,13.97
2017-12-28T13:15:08.984Z,13.73
2017-12-28T13:17:36.438Z,12.27
2017-12-28T13:20:03.969Z,16.70
2017-12-28T13:22:31.442Z,23.30
2017-12-28T13:24:58.940Z,9.83
2017-12-28T13:27:27.168Z,15.30
2017-12-28T13:29:54.645Z,19.43
2017-12-28T13:32:22.107Z,10.20
2017-12-28T13:34:49.564Z,8.60
2017-12-28T13:37:17.020Z,13.67
2017-12-28T13:39:44.492Z,9.10
2017-12-28T13:42:11.970Z,10.83
2017-12-28T13:44:39.696Z,11.53
2017-12-28T13:47:08.372Z,13.67
2017-12-28T13:49:35.839Z,9.07
2017-12-28T13:52:03.325Z,10.00
2017-12-28T13:54:31.559Z,27.03
2017-12-28T13:56:59.083Z,8.20
2017-12-28T13:59:26.550Z,8.17
2017-12-28T14:01:54.019Z,9.33
2017-12-28T14:04:21.692Z,10.47
2017-12-28T14:06:49.170Z,9.70
2017-12-28T14:09:17.290Z,11.17
2017-12-28T14:11:44.770Z,8.73
2017-12-28T14:14:12.246Z,12.83
2017-12-28T14:16:39.703Z,11.13
2017-12-28T14:19:07.193Z,13.37
2017-12-28T14:21:34.661Z,11.87
2017-12-28T14:24:03.044Z,13.43
2017-12-28T14:26:31.347Z,15.27
2017-12-28T14:28:59.619Z,7.63
2017-12-28T14:31:27.105Z,17.50
2017-12-28T14:33:54.583Z,8.37
2017-12-28T14:36:22.069Z,10.10
2017-12-28T14:38:50.516Z,7.60
2017-12-28T14:41:18.547Z,8.33
2017-12-28T14:43:46.455Z,10.63
2017-12-28T14:46:14.084Z,7.70
2017-12-28T14:48:41.541Z,8.90
2017-12-28T14:51:09.039Z,7.83
2017-12-28T14:53:36.506Z,14.77
2017-12-28T14:56:04.409Z,10.20
2017-12-28T14:58:32.727Z,11.83
2017-12-28T15:01:00.343Z,10.73
2017-12-28T15:03:28.591Z,19.93
2017-12-28T15:05:56.107Z,10.50
2017-12-28T15:08:23.571Z,12.80
2017-12-28T15:10:51.166Z,8.73
2017-12-28T15:13:18.752Z,17.97
2017-12-28T15:15:46.609Z,12.53
2017-12-28T15:18:14.073Z,9.50
2017-12-28T15:20:42.317Z,9.10
2017-12-28T15:23:09.790Z,15.43
2017-12-28T15:25:38.751Z,13.43
2017-12-28T15:28:06.228Z,18.77
2017-12-28T15:30:33.707Z,9.07
2017-12-28T15:33:01.182Z,14.67
2017-12-28T15:35:28.697Z,8.33
2017-12-28T15:37:56.204Z,12.20
2017-12-28T15:40:24.889Z,10.33
2017-12-28T15:43:06.329Z,10.57
2017-12-28T15:45:33.890Z,11.70
2017-12-28T15:48:01.452Z,12.10
2017-12-28T15:50:29.010Z,9.30
2017-12-28T15:52:56.832Z,18.20
2017-12-28T15:55:24.460Z,12.20
2017-12-28T15:57:53.443Z,9.43
2017-12-28T16:00:20.933Z,15.60
2017-12-28T16:02:49.184Z,13.00
2017-12-28T16:05:16.672Z,12.43
2017-12-28T16:07:45.120Z,10.97
2017-12-28T16:10:12.594Z,18.17
2017-12-28T16:12:40.100Z,13.03
2017-12-28T16:15:07.571Z,15.33
2017-12-28T16:17:35.066Z,12.50
2017-12-28T16:20:02.625Z,13.13
2017-12-28T16:22:30.109Z,12.67
2017-12-28T16:24:58.350Z,6.93
2017-12-28T16:27:25.857Z,8.90
2017-12-28T16:29:53.330Z,16.07
2017-12-28T16:32:20.890Z,9.10
2017-12-28T16:34:48.369Z,9.90
2017-12-28T16:37:15.895Z,11.23
2017-12-28T16:39:43.365Z,23.00
2017-12-28T16:42:10.853Z,10.30
2017-12-28T16:44:38.352Z,8.87
2017-12-28T16:47:06.574Z,10.97
2017-12-28T16:49:34.066Z,8.20
2017-12-28T16:52:01.546Z,14.30
2017-12-28T16:54:29.830Z,18.77
2017-12-28T16:56:58.278Z,11.90
2017-12-28T16:59:26.538Z,14.50
2017-12-28T17:01:54.004Z,14.30
2017-12-28T17:04:21.483Z,13.00
2017-12-28T17:06:48.994Z,8.80
2017-12-28T17:09:16.454Z,20.33
2017-12-28T17:11:43.941Z,14.67
2017-12-28T17:14:11.409Z,12.63
2017-12-28T17:16:38.888Z,12.13
2017-12-28T17:19:07.182Z,10.43
2017-12-28T17:21:35.425Z,10.50
2017-12-28T17:24:04.426Z,10.17
2017-12-28T17:26:31.917Z,13.83
2017-12-28T17:28:59.407Z,16.00
2017-12-28T17:31:26.926Z,14.03
2017-12-28T17:33:55.166Z,8.67
2017-12-28T17:36:22.652Z,10.93
2017-12-28T17:38:50.910Z,13.90
2017-12-28T17:41:18.385Z,10.00
2017-12-28T17:43:46.718Z,10.63
2017-12-28T17:46:14.188Z,8.57
2017-12-28T17:48:41.725Z,11.03
2017-12-28T17:51:09.908Z,14.73
2017-12-28T17:53:38.072Z,11.30
2017-12-28T17:56:05.575Z,12.80
2017-12-28T17:58:33.103Z,9.03
2017-12-28T18:01:00.562Z,8.03
2017-12-28T18:03:28.041Z,8.37
2017-12-28T18:05:55.588Z,8.40
2017-12-28T18:08:23.894Z,13.27
2017-12-28T18:10:51.363Z,9.00
2017-12-28T18:13:19.587Z,8.77
2017-12-28T18:15:47.511Z,17.63
2017-12-28T18:18:15.734Z,16.90
2017-12-28T18:20:43.280Z,16.67
2017-12-28T18:23:10.886Z,14.50
2017-12-28T18:25:38.453Z,17.50
2017-12-28T18:28:06.686Z,17.20
2017-12-28T18:30:34.183Z,11.03
2017-12-28T18:33:01.676Z,23.93
2017-12-28T18:35:29.185Z,10.10
2017-12-28T18:37:56.759Z,11.50
2017-12-28T18:40:24.356Z,17.03
2017-12-28T18:42:52.632Z,12.90
2017-12-28T18:45:20.458Z,13.37
2017-12-28T18:47:47.935Z,13.43
2017-12-28T18:50:16.203Z,14.13
2017-12-28T18:52:43.804Z,11.40
2017-12-28T18:55:11.291Z,11.10
2017-12-28T18:57:38.765Z,13.50
2017-12-28T19:00:06.237Z,10.47
2017-12-28T19:02:33.769Z,17.43
2017-12-28T19:05:01.266Z,11.83
2017-12-28T19:07:28.749Z,12.60
2017-12-28T19:09:56.245Z,14.80
2017-12-28T19:12:23.717Z,23.57
2017-12-28T19:14:51.203Z,12.70
2017-12-28T19:17:18.661Z,14.47
2017-12-28T19:19:46.129Z,14.07
2017-12-28T19:22:14.348Z,16.00
2017-12-28T19:24:43.217Z,13.00
2017-12-28T19:27:10.809Z,11.20
2017-12-28T19:29:38.486Z,22.33
2017-12-28T19:32:07.822Z,13.90
2017-12-28T19:34:36.052Z,10.93
2017-12-28T19:37:03.557Z,11.17
2017-12-28T19:39:31.858Z,14.63
2017-12-28T19:41:59.370Z,10.63
2017-12-28T19:44:26.905Z,12.73
2017-12-28T19:46:54.387Z,19.50
2017-12-28T19:49:22.691Z,12.63
2017-12-28T19:51:50.944Z,14.33
2017-12-28T19:54:18.503Z,13.77
2017-12-28T19:56:46.090Z,13.83
2017-12-28T19:59:14.321Z,16.23
2017-12-28T20:01:41.971Z,16.67
2017-12-28T20:04:09.508Z,15.97
2017-12-28T20:06:37.177Z,12.93
2017-12-28T20:09:04.676Z,10.50
2017-12-28T20:11:33.243Z,14.27
2017-12-28T20:14:00.729Z,13.20
2017-12-28T20:16:28.254Z,12.33
2017-12-28T20:18:55.843Z,24.10
2017-12-28T20:21:23.367Z,14.90
2017-12-28T20:23:50.853Z,14.60
2017-12-28T20:26:18.354Z,20.83
2017-12-28T20:28:46.698Z,12.00
2017-12-28T20:31:14.189Z,14.80
2017-12-28T20:33:42.487Z,15.63
2017-12-28T20:36:10.092Z,14.57
2017-12-28T20:38:38.363Z,14.93
2017-12-28T20:41:06.030Z,10.30
2017-12-28T20:43:33.534Z,12.50
2017-12-28T20:46:01.810Z,9.50
2017-12-28T20:48:30.078Z,12.40
2017-12-28T20:50:58.316Z,8.90
2017-12-28T20:53:25.811Z,19.87
2017-12-28T20:55:54.080Z,17.70
2017-12-28T20:58:24.601Z,15.23
2017-12-28T21:00:52.149Z,18.43
2017-12-28T21:03:20.452Z,14.90
2017-12-28T21:05:48.864Z,9.23
2017-12-28T21:08:16.332Z,24.23
2017-12-28T21:10:43.844Z,14.50
2017-12-28T21:13:11.374Z,12.73
2017-12-28T21:15:38.942Z,10.80
2017-12-28T21:18:06.468Z,12.10
2017-12-28T21:20:33.998Z,10.37
2017-12-28T21:23:01.599Z,12.23
2017-12-28T21:25:29.083Z,11.37
2017-12-28T21:27:56.607Z,8.63
2017-12-28T21:30:24.118Z,13.30
2017-12-28T21:32:51.789Z,13.43
2017-12-28T21:35:19.317Z,14.60
2017-12-28T21:37:47.711Z,15.73
2017-12-28T21:40:15.317Z,14.57
2017-12-28T21:42:43.060Z,13.30
2017-12-28T21:45:11.294Z,14.57
2017-12-28T21:47:38.868Z,15.70
2017-12-28T21:50:07.348Z,11.60
2017-12-28T21:52:36.085Z,16.33
2017-12-28T21:55:04.172Z,21.73
2017-12-28T21:57:31.915Z,11.50
2017-12-28T22:00:00.454Z,13.67
2017-12-28T22:02:28.316Z,14.93
2017-12-28T22:04:55.886Z,9.40
2017-12-28T22:07:23.342Z,20.87
2017-12-28T22:09:50.940Z,13.17
2017-12-28T22:12:18.480Z,11.27
2017-12-28T22:14:45.980Z,12.50
2017-12-28T22:17:13.447Z,15.67
2017-12-28T22:19:41.363Z,19.73
2017-12-28T22:22:08.826Z,9.13
2017-12-28T22:24:36.306Z,12.53
2017-12-28T22:27:04.981Z,22.20
2017-12-28T22:29:33.293Z,10.77
2017-12-28T22:32:01.016Z,10.33
2017-12-28T22:34:28.489Z,17.10
2017-12-28T22:36:55.969Z,15.30
2017-12-28T22:39:24.221Z,12.10
2017-12-28T22:41:51.681Z,12.00
2017-12-28T22:44:19.942Z,9.00
2017-12-28T22:46:47.411Z,9.60
2017-12-28T22:49:14.917Z,15.10
2017-12-28T22:51:42.374Z,14.53
2017-12-28T22:54:09.872Z,14.80
2017-12-28T22:56:38.269Z,14.27
2017-12-28T22:59:06.154Z,7.60
2017-12-28T23:01:33.648Z,20.73
2017-12-28T23:04:01.132Z,11.27
2017-12-28T23:06:29.170Z,8.33
2017-12-28T23:08:58.545Z,13.67
2017-12-28T23:11:26.510Z,6.23
2017-12-28T23:13:54.011Z,18.00
2017-12-28T23:16:21.506Z,9.20
2017-12-28T23:18:49.687Z,7.40
2017-12-28T23:21:18.032Z,5.73
2017-12-28T23:23:45.503Z,16.40
2017-12-28T23:26:13.383Z,10.80
2017-12-28T23:28:42.306Z,17.47
2017-12-28T23:31:11.009Z,12.73
2017-12-28T23:33:41.239Z,18.00
2017-12-28T23:36:08.930Z,18.67
2017-12-28T23:38:37.380Z,12.73
2017-12-28T23:41:05.127Z,6.53
2017-12-28T23:43:32.845Z,14.07
2017-12-28T23:46:04.426Z,11.03
2017-12-28T23:48:32.300Z,12.13
2017-12-28T23:51:02.599Z,9.67
2017-12-28T23:53:31.389Z,20.70
2017-12-28T23:56:01.140Z,9.00
2017-12-28T23:58:28.688Z,6.10
